sensor_id;sensor_type;location;lat;lon;timestamp;temperature;humidity
30304;DHT22;17112;48.636;10.152;2024-03-08T00:00:05;5.40;66.80
30304;DHT22;17112;48.636;10.152;2024-03-08T00:02:38;5.40;66.80
30304;DHT22;17112;48.636;10.152;2024-03-08T00:05:08;5.40;66.90
30304;DHT22;17112;48.636;10.152;2024-03-08T00:07:38;5.40;66.90
30304;DHT22;17112;48.636;10.152;2024-03-08T00:10:05;5.40;66.90
30304;DHT22;17112;48.636;10.152;2024-03-08T00:12:31;5.30;66.80
30304;DHT22;17112;48.636;10.152;2024-03-08T00:14:57;5.30;66.80
30304;DHT22;17112;48.636;10.152;2024-03-08T00:17:22;5.30;66.90
30304;DHT22;17112;48.636;10.152;2024-03-08T00:19:49;5.30;66.90
30304;DHT22;17112;48.636;10.152;2024-03-08T00:22:16;5.30;67.00
30304;DHT22;17112;48.636;10.152;2024-03-08T00:24:42;5.20;66.90
30304;DHT22;17112;48.636;10.152;2024-03-08T00:27:07;5.20;67.00
30304;DHT22;17112;48.636;10.152;2024-03-08T00:29:34;5.20;67.10
30304;DHT22;17112;48.636;10.152;2024-03-08T00:32:00;5.20;67.10
30304;DHT22;17112;48.636;10.152;2024-03-08T00:34:26;5.20;67.10
30304;DHT22;17112;48.636;10.152;2024-03-08T00:36:52;5.20;67.00
30304;DHT22;17112;48.636;10.152;2024-03-08T00:39:18;5.10;67.00
30304;DHT22;17112;48.636;10.152;2024-03-08T00:41:46;5.10;67.00
30304;DHT22;17112;48.636;10.152;2024-03-08T00:44:12;5.10;67.30
30304;DHT22;17112;48.636;10.152;2024-03-08T00:46:38;5.10;67.20
30304;DHT22;17112;48.636;10.152;2024-03-08T00:49:04;5.10;67.20
30304;DHT22;17112;48.636;10.152;2024-03-08T00:51:29;5.10;67.10
30304;DHT22;17112;48.636;10.152;2024-03-08T00:53:55;5.10;67.20
30304;DHT22;17112;48.636;10.152;2024-03-08T00:56:21;5.00;67.20
30304;DHT22;17112;48.636;10.152;2024-03-08T00:58:46;5.00;67.30
30304;DHT22;17112;48.636;10.152;2024-03-08T01:01:13;5.00;67.30
30304;DHT22;17112;48.636;10.152;2024-03-08T01:03:43;5.00;67.40
30304;DHT22;17112;48.636;10.152;2024-03-08T01:06:09;5.00;67.40
30304;DHT22;17112;48.636;10.152;2024-03-08T01:08:35;5.00;67.30
30304;DHT22;17112;48.636;10.152;2024-03-08T01:11:04;5.00;67.30
30304;DHT22;17112;48.636;10.152;2024-03-08T01:13:30;4.90;67.40
30304;DHT22;17112;48.636;10.152;2024-03-08T01:15:56;4.90;67.50
30304;DHT22;17112;48.636;10.152;2024-03-08T01:18:22;4.90;67.40
30304;DHT22;17112;48.636;10.152;2024-03-08T01:20:48;4.90;67.50
30304;DHT22;17112;48.636;10.152;2024-03-08T01:23:13;4.90;67.60
30304;DHT22;17112;48.636;10.152;2024-03-08T01:25:39;4.90;67.70
30304;DHT22;17112;48.636;10.152;2024-03-08T01:28:07;4.80;67.70
30304;DHT22;17112;48.636;10.152;2024-03-08T01:30:32;4.80;67.80
30304;DHT22;17112;48.636;10.152;2024-03-08T01:33:00;4.80;67.90
30304;DHT22;17112;48.636;10.152;2024-03-08T01:35:26;4.80;67.80
30304;DHT22;17112;48.636;10.152;2024-03-08T01:37:53;4.80;67.80
30304;DHT22;17112;48.636;10.152;2024-03-08T01:40:18;4.80;68.10
30304;DHT22;17112;48.636;10.152;2024-03-08T01:42:44;4.80;67.90
30304;DHT22;17112;48.636;10.152;2024-03-08T01:45:10;4.70;68.00
30304;DHT22;17112;48.636;10.152;2024-03-08T01:47:36;4.70;67.90
30304;DHT22;17112;48.636;10.152;2024-03-08T01:50:02;4.70;68.00
30304;DHT22;17112;48.636;10.152;2024-03-08T01:52:31;4.70;68.00
30304;DHT22;17112;48.636;10.152;2024-03-08T01:54:59;4.70;68.10
30304;DHT22;17112;48.636;10.152;2024-03-08T01:57:28;4.70;68.20
30304;DHT22;17112;48.636;10.152;2024-03-08T01:59:54;4.70;68.10
30304;DHT22;17112;48.636;10.152;2024-03-08T02:02:21;4.70;68.40
30304;DHT22;17112;48.636;10.152;2024-03-08T02:04:48;4.60;68.30
30304;DHT22;17112;48.636;10.152;2024-03-08T02:07:13;4.60;68.30
30304;DHT22;17112;48.636;10.152;2024-03-08T02:09:39;4.60;68.30
30304;DHT22;17112;48.636;10.152;2024-03-08T02:12:06;4.60;68.30
30304;DHT22;17112;48.636;10.152;2024-03-08T02:14:32;4.60;68.20
30304;DHT22;17112;48.636;10.152;2024-03-08T02:17:01;4.60;68.20
30304;DHT22;17112;48.636;10.152;2024-03-08T02:19:27;4.60;68.30
30304;DHT22;17112;48.636;10.152;2024-03-08T02:21:53;4.50;68.20
30304;DHT22;17112;48.636;10.152;2024-03-08T02:24:19;4.50;68.20
30304;DHT22;17112;48.636;10.152;2024-03-08T02:26:44;4.50;68.40
30304;DHT22;17112;48.636;10.152;2024-03-08T02:29:11;4.50;68.40
30304;DHT22;17112;48.636;10.152;2024-03-08T02:31:37;4.50;68.50
30304;DHT22;17112;48.636;10.152;2024-03-08T02:34:04;4.50;69.30
30304;DHT22;17112;48.636;10.152;2024-03-08T02:36:30;4.40;68.50
30304;DHT22;17112;48.636;10.152;2024-03-08T02:39:01;4.40;68.50
30304;DHT22;17112;48.636;10.152;2024-03-08T02:41:27;4.40;68.60
30304;DHT22;17112;48.636;10.152;2024-03-08T02:43:53;4.40;68.60
30304;DHT22;17112;48.636;10.152;2024-03-08T02:46:20;4.40;68.70
30304;DHT22;17112;48.636;10.152;2024-03-08T02:48:46;4.40;68.70
30304;DHT22;17112;48.636;10.152;2024-03-08T02:51:12;4.40;68.70
30304;DHT22;17112;48.636;10.152;2024-03-08T02:53:39;4.40;68.70
30304;DHT22;17112;48.636;10.152;2024-03-08T02:56:04;4.30;68.70
30304;DHT22;17112;48.636;10.152;2024-03-08T02:58:34;4.30;68.80
30304;DHT22;17112;48.636;10.152;2024-03-08T03:01:00;4.30;68.80
30304;DHT22;17112;48.636;10.152;2024-03-08T03:03:25;4.30;68.90
30304;DHT22;17112;48.636;10.152;2024-03-08T03:05:52;4.30;69.00
30304;DHT22;17112;48.636;10.152;2024-03-08T03:08:21;4.30;68.90
30304;DHT22;17112;48.636;10.152;2024-03-08T03:10:47;4.30;69.10
30304;DHT22;17112;48.636;10.152;2024-03-08T03:13:13;4.30;69.20
30304;DHT22;17112;48.636;10.152;2024-03-08T03:15:39;4.30;69.20
30304;DHT22;17112;48.636;10.152;2024-03-08T03:18:07;4.20;69.10
30304;DHT22;17112;48.636;10.152;2024-03-08T03:20:33;4.20;69.10
30304;DHT22;17112;48.636;10.152;2024-03-08T03:23:08;4.20;69.00
30304;DHT22;17112;48.636;10.152;2024-03-08T03:25:34;4.20;69.10
30304;DHT22;17112;48.636;10.152;2024-03-08T03:28:03;4.20;69.20
30304;DHT22;17112;48.636;10.152;2024-03-08T03:30:30;4.20;69.30
30304;DHT22;17112;48.636;10.152;2024-03-08T03:32:59;4.10;69.10
30304;DHT22;17112;48.636;10.152;2024-03-08T03:35:32;4.10;69.20
30304;DHT22;17112;48.636;10.152;2024-03-08T03:37:58;4.10;69.20
30304;DHT22;17112;48.636;10.152;2024-03-08T03:40:41;4.10;69.20
30304;DHT22;17112;48.636;10.152;2024-03-08T03:43:07;4.10;69.70
30304;DHT22;17112;48.636;10.152;2024-03-08T03:45:35;4.10;69.30
30304;DHT22;17112;48.636;10.152;2024-03-08T03:48:05;4.10;69.60
30304;DHT22;17112;48.636;10.152;2024-03-08T03:50:32;4.10;69.80
30304;DHT22;17112;48.636;10.152;2024-03-08T03:52:59;4.10;69.70
30304;DHT22;17112;48.636;10.152;2024-03-08T03:55:25;4.10;69.70
30304;DHT22;17112;48.636;10.152;2024-03-08T03:57:52;4.10;69.90
30304;DHT22;17112;48.636;10.152;2024-03-08T04:00:18;4.10;70.00
30304;DHT22;17112;48.636;10.152;2024-03-08T04:02:44;4.10;70.20
30304;DHT22;17112;48.636;10.152;2024-03-08T04:05:11;4.20;70.20
30304;DHT22;17112;48.636;10.152;2024-03-08T04:07:37;4.20;70.40
30304;DHT22;17112;48.636;10.152;2024-03-08T04:10:04;4.20;70.50
30304;DHT22;17112;48.636;10.152;2024-03-08T04:12:34;4.20;70.50
30304;DHT22;17112;48.636;10.152;2024-03-08T04:15:00;4.20;70.50
30304;DHT22;17112;48.636;10.152;2024-03-08T04:17:25;4.30;70.50
30304;DHT22;17112;48.636;10.152;2024-03-08T04:19:51;4.30;70.50
30304;DHT22;17112;48.636;10.152;2024-03-08T04:22:18;4.30;70.50
30304;DHT22;17112;48.636;10.152;2024-03-08T04:24:44;4.30;70.60
30304;DHT22;17112;48.636;10.152;2024-03-08T04:27:11;4.30;70.30
30304;DHT22;17112;48.636;10.152;2024-03-08T04:29:37;4.30;70.50
30304;DHT22;17112;48.636;10.152;2024-03-08T04:32:04;4.30;70.50
30304;DHT22;17112;48.636;10.152;2024-03-08T04:34:30;4.30;70.60
30304;DHT22;17112;48.636;10.152;2024-03-08T04:37:00;4.30;70.70
30304;DHT22;17112;48.636;10.152;2024-03-08T04:39:25;4.30;70.70
30304;DHT22;17112;48.636;10.152;2024-03-08T04:41:58;4.40;70.70
30304;DHT22;17112;48.636;10.152;2024-03-08T04:44:24;4.40;70.80
30304;DHT22;17112;48.636;10.152;2024-03-08T04:46:50;4.40;70.60
30304;DHT22;17112;48.636;10.152;2024-03-08T04:49:16;4.40;70.70
30304;DHT22;17112;48.636;10.152;2024-03-08T04:51:42;4.40;70.80
30304;DHT22;17112;48.636;10.152;2024-03-08T04:54:10;4.40;70.60
30304;DHT22;17112;48.636;10.152;2024-03-08T04:56:36;4.40;70.40
30304;DHT22;17112;48.636;10.152;2024-03-08T04:59:01;4.40;70.60
30304;DHT22;17112;48.636;10.152;2024-03-08T05:01:27;4.40;70.60
30304;DHT22;17112;48.636;10.152;2024-03-08T05:03:53;4.40;70.60
30304;DHT22;17112;48.636;10.152;2024-03-08T05:06:21;4.40;70.30
30304;DHT22;17112;48.636;10.152;2024-03-08T05:08:46;4.40;70.50
30304;DHT22;17112;48.636;10.152;2024-03-08T05:11:12;4.40;70.60
30304;DHT22;17112;48.636;10.152;2024-03-08T05:13:40;4.50;70.70
30304;DHT22;17112;48.636;10.152;2024-03-08T05:16:06;4.50;70.70
30304;DHT22;17112;48.636;10.152;2024-03-08T05:18:33;4.50;70.70
30304;DHT22;17112;48.636;10.152;2024-03-08T05:20:59;4.50;70.60
30304;DHT22;17112;48.636;10.152;2024-03-08T05:23:25;4.50;70.70
30304;DHT22;17112;48.636;10.152;2024-03-08T05:25:51;4.50;70.50
30304;DHT22;17112;48.636;10.152;2024-03-08T05:28:16;4.50;70.70
30304;DHT22;17112;48.636;10.152;2024-03-08T05:30:42;4.50;70.30
30304;DHT22;17112;48.636;10.152;2024-03-08T05:33:08;4.50;70.50
30304;DHT22;17112;48.636;10.152;2024-03-08T05:35:39;4.50;70.40
30304;DHT22;17112;48.636;10.152;2024-03-08T05:38:05;4.50;70.50
30304;DHT22;17112;48.636;10.152;2024-03-08T05:40:32;4.50;70.60
30304;DHT22;17112;48.636;10.152;2024-03-08T05:42:58;4.50;70.70
30304;DHT22;17112;48.636;10.152;2024-03-08T05:45:27;4.40;70.60
30304;DHT22;17112;48.636;10.152;2024-03-08T05:47:53;4.50;70.50
30304;DHT22;17112;48.636;10.152;2024-03-08T05:50:19;4.40;70.60
30304;DHT22;17112;48.636;10.152;2024-03-08T05:52:45;4.40;70.60
30304;DHT22;17112;48.636;10.152;2024-03-08T05:55:11;4.40;70.80
30304;DHT22;17112;48.636;10.152;2024-03-08T05:57:40;4.40;70.70
30304;DHT22;17112;48.636;10.152;2024-03-08T06:00:06;4.40;70.60
30304;DHT22;17112;48.636;10.152;2024-03-08T06:02:32;4.40;70.60
30304;DHT22;17112;48.636;10.152;2024-03-08T06:04:58;4.30;70.80
30304;DHT22;17112;48.636;10.152;2024-03-08T06:07:24;4.30;70.80
30304;DHT22;17112;48.636;10.152;2024-03-08T06:09:49;4.30;70.90
30304;DHT22;17112;48.636;10.152;2024-03-08T06:12:15;4.30;70.90
30304;DHT22;17112;48.636;10.152;2024-03-08T06:14:45;4.30;70.80
30304;DHT22;17112;48.636;10.152;2024-03-08T06:17:11;4.30;70.70
30304;DHT22;17112;48.636;10.152;2024-03-08T06:19:37;4.30;70.60
30304;DHT22;17112;48.636;10.152;2024-03-08T06:22:02;4.30;70.70
30304;DHT22;17112;48.636;10.152;2024-03-08T06:24:31;4.20;70.80
30304;DHT22;17112;48.636;10.152;2024-03-08T06:26:57;4.20;70.60
30304;DHT22;17112;48.636;10.152;2024-03-08T06:29:23;4.20;70.50
30304;DHT22;17112;48.636;10.152;2024-03-08T06:31:49;4.20;70.60
30304;DHT22;17112;48.636;10.152;2024-03-08T06:34:15;4.20;70.70
30304;DHT22;17112;48.636;10.152;2024-03-08T06:36:41;4.20;70.80
30304;DHT22;17112;48.636;10.152;2024-03-08T06:39:06;4.20;70.80
30304;DHT22;17112;48.636;10.152;2024-03-08T06:41:38;4.20;70.70
30304;DHT22;17112;48.636;10.152;2024-03-08T06:44:04;4.20;70.70
30304;DHT22;17112;48.636;10.152;2024-03-08T06:46:29;4.20;70.90
30304;DHT22;17112;48.636;10.152;2024-03-08T06:48:55;4.20;71.10
30304;DHT22;17112;48.636;10.152;2024-03-08T06:51:21;4.20;71.00
30304;DHT22;17112;48.636;10.152;2024-03-08T06:53:47;4.20;71.10
30304;DHT22;17112;48.636;10.152;2024-03-08T06:56:13;4.20;71.30
30304;DHT22;17112;48.636;10.152;2024-03-08T06:58:39;4.20;71.20
30304;DHT22;17112;48.636;10.152;2024-03-08T07:01:05;4.30;71.00
30304;DHT22;17112;48.636;10.152;2024-03-08T07:03:33;4.30;71.00
30304;DHT22;17112;48.636;10.152;2024-03-08T07:05:58;4.30;71.20
30304;DHT22;17112;48.636;10.152;2024-03-08T07:08:25;4.30;71.20
30304;DHT22;17112;48.636;10.152;2024-03-08T07:10:53;4.40;71.00
30304;DHT22;17112;48.636;10.152;2024-03-08T07:13:18;4.40;71.10
30304;DHT22;17112;48.636;10.152;2024-03-08T07:15:44;4.40;71.10
30304;DHT22;17112;48.636;10.152;2024-03-08T07:18:11;4.40;71.70
30304;DHT22;17112;48.636;10.152;2024-03-08T07:20:40;4.50;71.10
30304;DHT22;17112;48.636;10.152;2024-03-08T07:23:06;4.50;71.20
30304;DHT22;17112;48.636;10.152;2024-03-08T07:25:31;4.50;71.10
30304;DHT22;17112;48.636;10.152;2024-03-08T07:27:57;4.50;71.00
30304;DHT22;17112;48.636;10.152;2024-03-08T07:30:24;4.50;70.90
30304;DHT22;17112;48.636;10.152;2024-03-08T07:33:09;4.60;71.00
30304;DHT22;17112;48.636;10.152;2024-03-08T07:35:38;4.60;70.80
30304;DHT22;17112;48.636;10.152;2024-03-08T07:38:08;4.60;70.80
30304;DHT22;17112;48.636;10.152;2024-03-08T07:40:39;4.70;70.90
30304;DHT22;17112;48.636;10.152;2024-03-08T07:43:09;4.70;71.00
30304;DHT22;17112;48.636;10.152;2024-03-08T07:45:39;4.70;71.20
30304;DHT22;17112;48.636;10.152;2024-03-08T07:48:05;4.70;70.40
30304;DHT22;17112;48.636;10.152;2024-03-08T07:50:36;4.70;70.50
30304;DHT22;17112;48.636;10.152;2024-03-08T07:53:03;4.70;70.80
30304;DHT22;17112;48.636;10.152;2024-03-08T07:55:29;4.70;70.80
30304;DHT22;17112;48.636;10.152;2024-03-08T07:57:57;4.70;70.70
30304;DHT22;17112;48.636;10.152;2024-03-08T08:00:22;4.80;70.80
30304;DHT22;17112;48.636;10.152;2024-03-08T08:02:49;4.80;70.80
30304;DHT22;17112;48.636;10.152;2024-03-08T08:05:15;4.80;71.00
30304;DHT22;17112;48.636;10.152;2024-03-08T08:07:46;4.80;70.80
30304;DHT22;17112;48.636;10.152;2024-03-08T08:10:13;4.90;70.90
30304;DHT22;17112;48.636;10.152;2024-03-08T08:12:58;4.90;70.90
30304;DHT22;17112;48.636;10.152;2024-03-08T08:15:24;4.90;70.90
30304;DHT22;17112;48.636;10.152;2024-03-08T08:17:50;5.00;71.10
30304;DHT22;17112;48.636;10.152;2024-03-08T08:20:17;5.00;71.00
30304;DHT22;17112;48.636;10.152;2024-03-08T08:22:43;5.10;70.90
30304;DHT22;17112;48.636;10.152;2024-03-08T08:25:09;5.10;70.70
30304;DHT22;17112;48.636;10.152;2024-03-08T08:27:38;5.20;70.70
30304;DHT22;17112;48.636;10.152;2024-03-08T08:30:05;5.20;70.60
30304;DHT22;17112;48.636;10.152;2024-03-08T08:32:34;5.20;70.50
30304;DHT22;17112;48.636;10.152;2024-03-08T08:35:02;5.30;70.50
30304;DHT22;17112;48.636;10.152;2024-03-08T08:37:27;5.30;70.40
30304;DHT22;17112;48.636;10.152;2024-03-08T08:39:54;5.30;70.30
30304;DHT22;17112;48.636;10.152;2024-03-08T08:42:20;5.30;70.30
30304;DHT22;17112;48.636;10.152;2024-03-08T08:44:45;5.30;70.10
30304;DHT22;17112;48.636;10.152;2024-03-08T08:47:11;5.40;70.20
30304;DHT22;17112;48.636;10.152;2024-03-08T08:49:38;5.40;70.20
30304;DHT22;17112;48.636;10.152;2024-03-08T08:52:04;5.40;70.10
30304;DHT22;17112;48.636;10.152;2024-03-08T08:54:31;5.40;70.10
30304;DHT22;17112;48.636;10.152;2024-03-08T08:56:56;5.40;70.10
30304;DHT22;17112;48.636;10.152;2024-03-08T08:59:22;5.40;69.90
30304;DHT22;17112;48.636;10.152;2024-03-08T09:01:51;5.50;69.90
30304;DHT22;17112;48.636;10.152;2024-03-08T09:04:19;5.50;70.00
30304;DHT22;17112;48.636;10.152;2024-03-08T09:06:45;5.50;70.00
30304;DHT22;17112;48.636;10.152;2024-03-08T09:09:10;5.50;70.00
30304;DHT22;17112;48.636;10.152;2024-03-08T09:11:39;5.60;69.90
30304;DHT22;17112;48.636;10.152;2024-03-08T09:14:08;5.60;69.90
30304;DHT22;17112;48.636;10.152;2024-03-08T09:16:37;5.70;70.00
30304;DHT22;17112;48.636;10.152;2024-03-08T09:19:03;5.70;69.80
30304;DHT22;17112;48.636;10.152;2024-03-08T09:21:28;5.70;69.70
30304;DHT22;17112;48.636;10.152;2024-03-08T09:23:54;5.70;69.60
30304;DHT22;17112;48.636;10.152;2024-03-08T09:26:20;5.70;69.60
30304;DHT22;17112;48.636;10.152;2024-03-08T09:28:47;5.80;69.60
30304;DHT22;17112;48.636;10.152;2024-03-08T09:31:13;5.90;69.70
30304;DHT22;17112;48.636;10.152;2024-03-08T09:33:39;5.90;70.30
30304;DHT22;17112;48.636;10.152;2024-03-08T09:36:07;5.90;69.30
30304;DHT22;17112;48.636;10.152;2024-03-08T09:38:33;6.00;69.40
30304;DHT22;17112;48.636;10.152;2024-03-08T09:41:02;6.00;69.40
30304;DHT22;17112;48.636;10.152;2024-03-08T09:43:29;6.00;69.40
30304;DHT22;17112;48.636;10.152;2024-03-08T09:45:57;6.10;69.40
30304;DHT22;17112;48.636;10.152;2024-03-08T09:48:23;6.10;69.30
30304;DHT22;17112;48.636;10.152;2024-03-08T09:50:48;6.20;69.20
30304;DHT22;17112;48.636;10.152;2024-03-08T09:53:15;6.20;69.20
30304;DHT22;17112;48.636;10.152;2024-03-08T09:55:42;6.30;69.20
30304;DHT22;17112;48.636;10.152;2024-03-08T09:58:11;6.40;69.10
30304;DHT22;17112;48.636;10.152;2024-03-08T10:01:07;6.40;68.90
30304;DHT22;17112;48.636;10.152;2024-03-08T10:03:33;6.50;69.00
30304;DHT22;17112;48.636;10.152;2024-03-08T10:06:00;6.50;69.00
30304;DHT22;17112;48.636;10.152;2024-03-08T10:08:29;6.60;69.00
30304;DHT22;17112;48.636;10.152;2024-03-08T10:10:55;6.70;68.90
30304;DHT22;17112;48.636;10.152;2024-03-08T10:13:25;6.70;68.70
30304;DHT22;17112;48.636;10.152;2024-03-08T10:15:52;6.80;68.40
30304;DHT22;17112;48.636;10.152;2024-03-08T10:18:18;6.80;68.10
30304;DHT22;17112;48.636;10.152;2024-03-08T10:20:44;6.80;68.10
30304;DHT22;17112;48.636;10.152;2024-03-08T10:23:10;6.90;68.10
30304;DHT22;17112;48.636;10.152;2024-03-08T10:25:36;6.90;68.00
30304;DHT22;17112;48.636;10.152;2024-03-08T10:28:05;6.90;67.90
30304;DHT22;17112;48.636;10.152;2024-03-08T10:30:30;6.90;67.50
30304;DHT22;17112;48.636;10.152;2024-03-08T10:32:56;7.00;67.80
30304;DHT22;17112;48.636;10.152;2024-03-08T10:35:22;7.00;68.00
30304;DHT22;17112;48.636;10.152;2024-03-08T10:37:50;7.00;68.10
30304;DHT22;17112;48.636;10.152;2024-03-08T10:40:24;7.10;68.20
30304;DHT22;17112;48.636;10.152;2024-03-08T10:42:58;7.20;68.10
30304;DHT22;17112;48.636;10.152;2024-03-08T10:45:36;7.20;67.80
30304;DHT22;17112;48.636;10.152;2024-03-08T10:48:28;7.30;67.90
30304;DHT22;17112;48.636;10.152;2024-03-08T10:51:01;7.40;67.50
30304;DHT22;17112;48.636;10.152;2024-03-08T10:53:28;7.50;67.90
30304;DHT22;17112;48.636;10.152;2024-03-08T10:55:56;7.60;67.50
30304;DHT22;17112;48.636;10.152;2024-03-08T10:58:24;7.60;67.40
30304;DHT22;17112;48.636;10.152;2024-03-08T11:00:57;7.70;67.50
30304;DHT22;17112;48.636;10.152;2024-03-08T11:06:30;7.90;66.80
30304;DHT22;17112;48.636;10.152;2024-03-08T11:09:37;8.00;66.70
30304;DHT22;17112;48.636;10.152;2024-03-08T11:12:21;8.20;67.60
30304;DHT22;17112;48.636;10.152;2024-03-08T11:14:48;8.40;67.40
30304;DHT22;17112;48.636;10.152;2024-03-08T11:20:15;8.80;66.70
30304;DHT22;17112;48.636;10.152;2024-03-08T11:22:53;9.10;67.00
30304;DHT22;17112;48.636;10.152;2024-03-08T11:25:41;9.40;65.80
30304;DHT22;17112;48.636;10.152;2024-03-08T11:28:18;9.60;64.90
30304;DHT22;17112;48.636;10.152;2024-03-08T11:30:46;9.80;65.90
30304;DHT22;17112;48.636;10.152;2024-03-08T11:33:15;10.10;66.30
30304;DHT22;17112;48.636;10.152;2024-03-08T11:35:42;10.40;66.10
30304;DHT22;17112;48.636;10.152;2024-03-08T11:38:11;10.60;65.60
30304;DHT22;17112;48.636;10.152;2024-03-08T11:40:39;10.90;63.70
30304;DHT22;17112;48.636;10.152;2024-03-08T11:43:05;11.10;64.20
30304;DHT22;17112;48.636;10.152;2024-03-08T11:45:40;11.30;63.60
30304;DHT22;17112;48.636;10.152;2024-03-08T11:48:07;11.40;62.50
30304;DHT22;17112;48.636;10.152;2024-03-08T11:50:34;11.60;62.60
30304;DHT22;17112;48.636;10.152;2024-03-08T11:53:05;11.70;61.70
30304;DHT22;17112;48.636;10.152;2024-03-08T11:55:32;11.80;61.00
30304;DHT22;17112;48.636;10.152;2024-03-08T11:58:05;11.90;60.70
30304;DHT22;17112;48.636;10.152;2024-03-08T12:00:33;12.00;60.50
30304;DHT22;17112;48.636;10.152;2024-03-08T12:03:05;12.10;60.60
30304;DHT22;17112;48.636;10.152;2024-03-08T12:05:32;12.20;61.00
30304;DHT22;17112;48.636;10.152;2024-03-08T12:07:59;12.30;60.80
30304;DHT22;17112;48.636;10.152;2024-03-08T12:10:25;12.40;60.10
30304;DHT22;17112;48.636;10.152;2024-03-08T12:12:57;12.50;59.50
30304;DHT22;17112;48.636;10.152;2024-03-08T12:15:25;12.50;59.20
30304;DHT22;17112;48.636;10.152;2024-03-08T12:17:52;12.50;59.30
30304;DHT22;17112;48.636;10.152;2024-03-08T12:20:25;12.50;59.10
30304;DHT22;17112;48.636;10.152;2024-03-08T12:22:53;12.50;59.30
30304;DHT22;17112;48.636;10.152;2024-03-08T12:25:20;12.50;60.20
30304;DHT22;17112;48.636;10.152;2024-03-08T12:27:46;12.60;60.40
30304;DHT22;17112;48.636;10.152;2024-03-08T12:32:55;12.80;59.30
30304;DHT22;17112;48.636;10.152;2024-03-08T12:35:26;13.00;59.90
30304;DHT22;17112;48.636;10.152;2024-03-08T12:37:54;13.10;59.90
30304;DHT22;17112;48.636;10.152;2024-03-08T12:40:29;13.30;59.70
30304;DHT22;17112;48.636;10.152;2024-03-08T12:43:00;13.30;58.70
30304;DHT22;17112;48.636;10.152;2024-03-08T12:45:27;13.40;59.10
30304;DHT22;17112;48.636;10.152;2024-03-08T12:47:53;13.50;58.90
30304;DHT22;17112;48.636;10.152;2024-03-08T12:50:21;13.60;58.50
30304;DHT22;17112;48.636;10.152;2024-03-08T12:52:47;13.70;58.70
30304;DHT22;17112;48.636;10.152;2024-03-08T12:55:14;13.70;57.80
30304;DHT22;17112;48.636;10.152;2024-03-08T12:57:43;13.80;57.50
30304;DHT22;17112;48.636;10.152;2024-03-08T13:00:09;13.80;57.00
30304;DHT22;17112;48.636;10.152;2024-03-08T13:02:39;13.70;57.50
30304;DHT22;17112;48.636;10.152;2024-03-08T13:05:06;13.70;57.60
30304;DHT22;17112;48.636;10.152;2024-03-08T13:07:35;13.80;57.60
30304;DHT22;17112;48.636;10.152;2024-03-08T13:10:01;13.80;57.70
30304;DHT22;17112;48.636;10.152;2024-03-08T13:12:26;13.80;57.40
30304;DHT22;17112;48.636;10.152;2024-03-08T13:14:52;13.90;57.10
30304;DHT22;17112;48.636;10.152;2024-03-08T13:17:22;13.90;57.20
30304;DHT22;17112;48.636;10.152;2024-03-08T13:19:48;14.00;56.90
30304;DHT22;17112;48.636;10.152;2024-03-08T13:22:13;14.00;56.50
30304;DHT22;17112;48.636;10.152;2024-03-08T13:24:44;13.90;56.60
30304;DHT22;17112;48.636;10.152;2024-03-08T13:27:11;13.90;56.50
30304;DHT22;17112;48.636;10.152;2024-03-08T13:29:46;14.00;57.00
30304;DHT22;17112;48.636;10.152;2024-03-08T13:32:13;14.00;57.00
30304;DHT22;17112;48.636;10.152;2024-03-08T13:34:42;14.10;57.00
30304;DHT22;17112;48.636;10.152;2024-03-08T13:37:09;14.20;56.80
30304;DHT22;17112;48.636;10.152;2024-03-08T13:39:36;14.30;57.20
30304;DHT22;17112;48.636;10.152;2024-03-08T13:42:11;14.40;56.80
30304;DHT22;17112;48.636;10.152;2024-03-08T13:44:48;14.50;56.40
30304;DHT22;17112;48.636;10.152;2024-03-08T13:47:18;14.60;55.80
30304;DHT22;17112;48.636;10.152;2024-03-08T13:49:44;14.70;55.70
30304;DHT22;17112;48.636;10.152;2024-03-08T13:52:11;14.80;55.80
30304;DHT22;17112;48.636;10.152;2024-03-08T13:54:42;14.90;55.90
30304;DHT22;17112;48.636;10.152;2024-03-08T13:57:07;15.00;55.90
30304;DHT22;17112;48.636;10.152;2024-03-08T13:59:33;15.10;55.30
30304;DHT22;17112;48.636;10.152;2024-03-08T14:02:01;15.20;55.30
30304;DHT22;17112;48.636;10.152;2024-03-08T14:04:28;15.30;54.60
30304;DHT22;17112;48.636;10.152;2024-03-08T14:06:54;15.30;54.10
30304;DHT22;17112;48.636;10.152;2024-03-08T14:09:26;15.40;54.20
30304;DHT22;17112;48.636;10.152;2024-03-08T14:11:57;15.40;54.00
30304;DHT22;17112;48.636;10.152;2024-03-08T14:14:24;15.40;54.00
30304;DHT22;17112;48.636;10.152;2024-03-08T14:16:50;15.40;53.50
30304;DHT22;17112;48.636;10.152;2024-03-08T14:19:20;15.50;53.40
30304;DHT22;17112;48.636;10.152;2024-03-08T14:21:47;15.50;53.50
30304;DHT22;17112;48.636;10.152;2024-03-08T14:24:19;15.50;53.20
30304;DHT22;17112;48.636;10.152;2024-03-08T14:26:45;15.50;53.30
30304;DHT22;17112;48.636;10.152;2024-03-08T14:29:12;15.60;53.30
30304;DHT22;17112;48.636;10.152;2024-03-08T14:31:38;15.60;53.30
30304;DHT22;17112;48.636;10.152;2024-03-08T14:34:04;15.70;53.20
30304;DHT22;17112;48.636;10.152;2024-03-08T14:36:30;15.70;52.10
30304;DHT22;17112;48.636;10.152;2024-03-08T14:38:56;15.80;52.70
30304;DHT22;17112;48.636;10.152;2024-03-08T14:41:21;15.90;52.80
30304;DHT22;17112;48.636;10.152;2024-03-08T14:43:50;16.00;52.60
30304;DHT22;17112;48.636;10.152;2024-03-08T14:46:18;16.10;52.40
30304;DHT22;17112;48.636;10.152;2024-03-08T14:48:52;16.10;51.90
30304;DHT22;17112;48.636;10.152;2024-03-08T14:51:19;16.20;50.80
30304;DHT22;17112;48.636;10.152;2024-03-08T14:53:47;16.20;51.50
30304;DHT22;17112;48.636;10.152;2024-03-08T14:56:13;16.20;51.10
30304;DHT22;17112;48.636;10.152;2024-03-08T14:58:45;16.20;51.20
30304;DHT22;17112;48.636;10.152;2024-03-08T15:01:15;16.20;50.80
30304;DHT22;17112;48.636;10.152;2024-03-08T15:03:44;16.30;51.30
30304;DHT22;17112;48.636;10.152;2024-03-08T15:06:10;16.40;51.00
30304;DHT22;17112;48.636;10.152;2024-03-08T15:08:36;16.50;51.20
30304;DHT22;17112;48.636;10.152;2024-03-08T15:11:03;16.50;50.50
30304;DHT22;17112;48.636;10.152;2024-03-08T15:13:29;16.50;50.00
30304;DHT22;17112;48.636;10.152;2024-03-08T15:16:10;16.60;50.00
30304;DHT22;17112;48.636;10.152;2024-03-08T15:18:42;16.60;49.00
30304;DHT22;17112;48.636;10.152;2024-03-08T15:21:18;16.60;49.70
30304;DHT22;17112;48.636;10.152;2024-03-08T15:23:45;16.60;48.40
30304;DHT22;17112;48.636;10.152;2024-03-08T15:26:19;16.60;49.10
30304;DHT22;17112;48.636;10.152;2024-03-08T15:28:45;16.60;49.00
30304;DHT22;17112;48.636;10.152;2024-03-08T15:31:12;16.60;48.90
30304;DHT22;17112;48.636;10.152;2024-03-08T15:33:41;16.60;49.20
30304;DHT22;17112;48.636;10.152;2024-03-08T15:36:24;16.60;48.80
30304;DHT22;17112;48.636;10.152;2024-03-08T15:38:53;16.70;49.10